15°C Temp
10°C Dewpoint
% Humidity
Temperature
23 KM/H
14 MPH
12 KTS
80°
Due East

Wind Speed
Parcialmente Nublado
Pressure 1028.92 (hPa) - 30.38 (in)
Visibility 6.2 (mi) - 10.0 (km)

Current Conditions
LEAL
Location 70(km)
Metar :LEAL 252000Z 08012KT 9999 FEW015 BKN022 15/10 Q1029 NOSIG
Thu 25th February 21:00 pm

Airport
  Metar Aviation API Data Provided by https://www.checkwx.com/ PHP scripts by weather34.com ©2021